Clarksville, AR

8:05 PM CST on March 01, 2015 (GMT -0600)
Fort Smith Regional | Change Station
CLOSE
Current Station
Airport
Location: Fort Smith,
Elevation: 463 ft
Nearby Weather Stations

Elev 463 ft 35.33 °N, 94.36 °W | Updated 5 minutes ago

Overcast
Overcast
37 °F
Feels Like 33 °F
N
5
Wind Variable Wind from NNW

Today
High -- | Low -- °F
--% Chance of Precip.
Yesterday
High -- | Low -- °F
Precip. -- in
6:43 AM 6:09 PM
Waxing Gibbous, 88% visible
Pressure 30.39 in
Visibility 6.0 miles
Clouds Scattered Clouds 1700 ft
Overcast 2500 ft
Windchill 33 °F
Dew Point 32 °F
Humidity 82%
Rainfall 0.00 in
Snow Depth Not available.
UV 0 out of 12
Pollen 2.00 out of 12
Air Quality Not available.
Flu Activity Not available.
SPECI KFSM 020200Z 33004KT 6SM HZ SCT017 OVC025 03/00 A3039 RMK AO2 T00280000

More Conditions Fewer Conditions

Pressure 30.39 in
Visibility 6.0 miles
Clouds Scattered Clouds 1700 ft
Overcast 2500 ft
Windchill 33 °F
Dew Point 32 °F
Humidity 82%
Rainfall 0.00 in
Snow Depth Not available.
UV 0 out of 12
Pollen 2.00 out of 12
Air Quality Not available.
Flu Activity Not available.
SPECI KFSM 020200Z 33004KT 6SM HZ SCT017 OVC025 03/00 A3039 RMK AO2 T00280000

More Conditions Fewer Conditions

10-Day Weather Forecast

Almanac

Astronomy

Mar. 01, 2015 Rise Set
Actual Time
Civil Twilight
Nautical Twilight
Astronomical Twilight
Moon
Length of Visible Light
Length of Day
Tomorrow will be .
, % of the Moon is Illuminated

Today's Extremes

State Highs State Lows

Community

WunderPhotos

Upload Photos

1,801,679 photos uploaded!

WunderBlogs® & News

Nearby

Air Quality

  Air Quality AQ Index Pollutant
Not available.

Snow Depth

Station Depth Elevation

Earthquake Activity

City Distance Mag. Time & Date
Minimum magnitude displayed is 2.5.

Coastal Water Temperatures

Place Temperature

Nearby Weather Stations